Feijo, Brazil
Current Conditions -  °F | °C
As of 8:00 AM on Tuesday 21 Oct 2014 (Local Time) from SBCZ Reporting Station
Scattered Clouds Scattered Clouds  
Wind Chill: 77°   Ceiling: Unl
Heat Index: 78°   Visibility: 6mi
Dew Point: 77°   Wind: 3mph
Humidity: 100%   Direction: 340°NNW
Pressure: 29.94"   Gusts: NA
Location:  8.16°S, 70.35°W
Report Text: SBCZ 211200Z 34003KT 9999 SCT010 SCT100 25/25 Q1014
Loading
Personal Weather Stations






























Interactive Weather Map
Tropical Storm Tracking
New forecast layout! Learn more

10-Day Weather Forecast

Advertisements
Track Severe Weather on mobile